Starksboro, Vermont
Current Conditions -  °F | °C
As of 9:41 PM on Wednesday 17 Dec 2014 (Local Time) from KBTV Reporting Station
Haze Haze  
Wind Chill: 35°   Ceiling: 3600
Heat Index: 35°   Visibility: 2.5mi
Dew Point: 33°   Wind: 0mph
Humidity: 92%   Direction: NA
Pressure: 29.77"   Gusts: NA
Location:  44.23°N, 73.06°W
Report Text: KBTV 180241Z 00000KT 2 1/2SM BR BKN036 OVC047 02/01 A2977 RMK AO2 T00170006
Loading
Personal Weather Stations






























Interactive Weather Map New forecast layout! Learn more

10-Day Weather Forecast

Advertisements
Track Severe Weather on mobile